Southfield, Massachusetts
Current Conditions -  °F | °C
As of 12:54 PM on Tuesday 21 Oct 2014 (Local Time) from KPSF Reporting Station
Overcast Overcast  
Wind Chill: 51°   Ceiling: 6000
Heat Index: 51°   Visibility: 10mi
Dew Point: 48°   Wind: 3mph
Humidity: 89%   Direction: 10°N
Pressure: 29.91"   Gusts: NA
Location:  42.1°N, 73.23°W
Report Text: KPSF 211654Z AUTO 01003KT 10SM SCT007 BKN060 OVC075 11/09 A2991 RMK AO2 RAE33 SLP122 P0000 T01060089
Loading
Personal Weather Stations






























Interactive Weather Map
Tropical Storm Tracking
New forecast layout! Learn more

10-Day Weather Forecast

Advertisements
Track Severe Weather on mobile